New Tanegashima Airport
RJFG : now visible

Airfield :











YOU CAN JOIN US ON...

 
LOGIN :

Register | Disclaimer

   EN    FR    IT 

 









Legend :    VFR   Marginal VFR   IFR   Intensive IFR   Very Intensive IFR
Visi :
Ceiling :
>= 8 km
>= 3000ft
5 to 8 km
1000 to 3000 ft
1500m to 5 km
500 to 1000 ft
800 to 1500m
200 to 500 ft
< 800m
< 200 ft
Symbols :   Thunderstorms  Fog  Heavy snow  Heavy precipitations  Wind > 20 kt






- Airport Elevation : 768 ft
- IATA code : TNE


RJFG - New Tanegashima

CURRENT METAR :
  • 250300Z 28007KT 250V310 9999 FEW010 SCT015 BKN030 24/21 Q1006

EXPIRED METARs :
  • 250200Z 29008KT 9999 FEW005 SCT010 BKN035 23/21 Q1006
  • 250130Z 29009KT 8000 FEW003 SCT006 BKN015 22/21 Q1006 RMK 1ST003 3ST006 5CU015 A2972
  • 250100Z 31004KT 3000 R31/1100VP1800D -SHRA BR FEW005 SCT010 BKN015 22/21 Q1006

TAF N/A
RJJJ FIR / Asia



MET'MAP, your aeronautical weather chart ! - Copyright ORBIFLY December 2007 - Disclaimer

ORBIFLY MET'MAP TEAM :

Programming & Development : Alexandra Zaïnal
Concept & original design : Baudouin d'Aumeries
Assistance for programming : Marc-Olivier Méhu
Technical & hardware support : Manuel Goepfert

Contact : metmap@orbifly.com




SOURCES & CREDITS :

   NOAA       Earth
Advisory